Fairchem Colt — V7KS9 — position and weather

sailwx.info

Track history (hours):
 
Tides and Currents Weather Stations Pressure Air Temp Water Temp Dewpoint Dewpoint Depression Visibility Wind Speed Wind Dir Waves Ship Positions

Fairchem Colt

Last reported at 2018-Jul-03 12:12 UTC. Time now 2018-Jul-22 14:32 UTC.
Position N 25°41' W 079°29'.
Warning: this ship's position is 19 days out of date.

Length 146 m; draft 6.5 m.

Type: Ship. MMSI: 538006225.

Date/timePositionNaut miles runAvg speedWind from/ knotsBaromVisibWave heightAir tempDewpointWater temp
2018-Jul-03 12:12N 25°41' W 079°29'311.1
2018-Jul-03 11:56N 25°44' W 079°29'511.1
2018-Jul-03 11:29N 25°49' W 079°28'2411.5
2018-Jul-03 09:25N 26°12' W 079°21'  
2018-Jun-26 01:26N 46°50' W 071°08'9112.2
2018-Jun-25 17:57N 46°04' W 073°02'612.6
2018-Jun-25 17:30N 46°03' W 073°10'612.9
2018-Jun-25 17:00N 45°56' W 073°13'510.3
2018-Jun-25 16:31N 45°52' W 073°16'612.6
2018-Jun-25 16:01N 45°47' W 073°22'713.4
2018-Jun-25 15:30N 45°41' W 073°27'4 0.4
2018-Jun-25 06:43N 45°38' W 073°29'0 0.0
2018-Jun-25 06:25N 45°38' W 073°29'0 0.0
2018-Jun-25 05:34N 45°38' W 073°29'0 0.1
2018-Jun-25 05:28N 45°38' W 073°29'0 0.0
2018-Jun-24 21:39N 45°38' W 073°29'1 4.0
2018-Jun-24 21:30N 45°37' W 073°30'7 9.4
2018-Jun-24 20:45N 45°30' W 073°31'1 3.7
2018-Jun-24 20:31N 45°30' W 073°31'0 1.0
2018-Jun-24 20:01N 45°29' W 073°31'3 5.3
2018-Jun-24 19:31N 45°27' W 073°30'1 2.4
2018-Jun-24 19:01N 45°25' W 073°30'2 3.6
2018-Jun-24 18:31N 45°24' W 073°33'1 2.0
2018-Jun-24 18:01N 45°24' W 073°34'1 2.2
2018-Jun-24 17:29N 45°24' W 073°36'3 6.0
2018-Jun-24 17:00N 45°25' W 073°40'4 7.8
2018-Jun-24 16:30N 45°24' W 073°45'713.2
2018-Jun-24 16:00N 45°20' W 073°53'2 4.3
2018-Jun-24 15:31N 45°19' W 073°55'1 1.7
2018-Jun-24 15:00N 45°18' W 073°56'1 1.3
2018-Jun-24 14:30N 45°18' W 073°56'3 5.2
2018-Jun-24 13:59N 45°15' W 073°58'810.2
2018-Jun-24 13:14N 45°14' W 074°09'  
Track history (hours):
 
Tides and Currents Weather Stations Pressure Air Temp Water Temp Dewpoint Dewpoint Depression Visibility Wind Speed Wind Dir Waves Ship Positions

Fairchem Colt

Last reported at 2018-Jul-03 12:12 UTC. Time now 2018-Jul-22 14:32 UTC.
Position N 25°41' W 079°29'.
Warning: this ship's position is 19 days out of date.

Length 146 m; draft 6.5 m.

Type: Ship. MMSI: 538006225.

Date/timePositionNaut miles runAvg speedWind from/ knotsBaromVisibWave heightAir tempDewpointWater temp
2018-Jul-03 12:12N 25°41' W 079°29'311.1
2018-Jul-03 11:56N 25°44' W 079°29'511.1
2018-Jul-03 11:29N 25°49' W 079°28'2411.5
2018-Jul-03 09:25N 26°12' W 079°21'  
2018-Jun-26 01:26N 46°50' W 071°08'9112.2
2018-Jun-25 17:57N 46°04' W 073°02'612.6
2018-Jun-25 17:30N 46°03' W 073°10'612.9
2018-Jun-25 17:00N 45°56' W 073°13'510.3
2018-Jun-25 16:31N 45°52' W 073°16'612.6
2018-Jun-25 16:01N 45°47' W 073°22'713.4
2018-Jun-25 15:30N 45°41' W 073°27'4 0.4
2018-Jun-25 06:43N 45°38' W 073°29'0 0.0
2018-Jun-25 06:25N 45°38' W 073°29'0 0.0
2018-Jun-25 05:34N 45°38' W 073°29'0 0.1
2018-Jun-25 05:28N 45°38' W 073°29'0 0.0
2018-Jun-24 21:39N 45°38' W 073°29'1 4.0
2018-Jun-24 21:30N 45°37' W 073°30'7 9.4
2018-Jun-24 20:45N 45°30' W 073°31'1 3.7
2018-Jun-24 20:31N 45°30' W 073°31'0 1.0
2018-Jun-24 20:01N 45°29' W 073°31'3 5.3
2018-Jun-24 19:31N 45°27' W 073°30'1 2.4
2018-Jun-24 19:01N 45°25' W 073°30'2 3.6
2018-Jun-24 18:31N 45°24' W 073°33'1 2.0
2018-Jun-24 18:01N 45°24' W 073°34'1 2.2
2018-Jun-24 17:29N 45°24' W 073°36'3 6.0
2018-Jun-24 17:00N 45°25' W 073°40'4 7.8
2018-Jun-24 16:30N 45°24' W 073°45'713.2
2018-Jun-24 16:00N 45°20' W 073°53'2 4.3
2018-Jun-24 15:31N 45°19' W 073°55'1 1.7
2018-Jun-24 15:00N 45°18' W 073°56'1 1.3
2018-Jun-24 14:30N 45°18' W 073°56'3 5.2
2018-Jun-24 13:59N 45°15' W 073°58'810.2
2018-Jun-24 13:14N 45°14' W 074°09'  

Dump ship's entire track history